Главная страница
METAR-TAF:

METAR-TAF

Аэропорты :

Пудун

Шанхай-Пудун, Китай

широта: 31-07N, долгота: 121-46E, высота над уровнем моря: 4 м

Текущие метеонаблюдения

Эта сводка был подготовлена 36 минут назад, в 10:30 UTC
Ветер 12 Узел от северо-восточный
Температура 24°C
Влажность 54%
Давление 1017 hPa
Видимость 10 км и более
Нет облачности ниже 1500 м, и нет кучево-дождевой облачности

METAR: ZSPD 241030Z 05006MPS CAVOK 24/14 Q1017 NOSIG

Время: 19:06 (11:06 UTC)

Прогноз

Эта сводка был подготовлена 7 часа и 43 минут назад, в 03:23 UTC
Прогноз действительный с 24-го 06 UTC до 25-го 06 UTC
Ветер 14 Узел от северо-восточный с порывами до 25 Узел
Видимость: 6000 м
Отдельные облака на высоте 1600 фута

TAF: ZSPD 240323Z 2406/2506 05007G13MPS 6000 SCT016 TX28/2406Z TN19/2421Z

Метеонаблюдения и прогнозы для более 4000 аэропортов (сводки METAR и TAF).

Имеющиеся станции представлены на карте желтыми и красными точками.

Чтобы увидеть название станции, наведите на нее мышь.

Затем щелкните, чтобы увидеть метеонаблюдения и метеопрогнозы.

Управление картой: чтобы увеличить масштаб, щелкните зеленые кнопки с черным крестиком; чтобы уменьшить масштаб, щелкните зеленую кнопку с тире; для просмотра соседних карт щелкайте зеленые стрелки.


METAR-TAF: